Los Molinos, Argentina
Current Conditions -  °F | °C
As of 5:00 AM on Saturday 25 Oct 2014 (Local Time) from SAAR Reporting Station
Clear Clear  
Wind Chill: 70°   Ceiling: Unl
Heat Index: 70°   Visibility: 6mi
Dew Point: 63°   Wind: 6mph
Humidity: 78%   Direction: 50°NE
Pressure: 29.91"   Gusts: NA
Location:  33.12°S, 61.33°W
Report Text: SAAR 250800Z 05005KT CAVOK 21/17 Q1013
Loading
Personal Weather Stations






























Interactive Weather Map
Tropical Storm Tracking
New forecast layout! Learn more

10-Day Weather Forecast

Advertisements
Track Severe Weather on mobile